Essex, New York
Current Conditions -  °F | °C
As of 5:54 AM on Tuesday 21 Oct 2014 (Local Time) from KBTV Reporting Station
Light Rain Light Rain  
Wind Chill: 45°   Ceiling: 4600
Heat Index: 45°   Visibility: 8mi
Dew Point: 42°   Wind: 3mph
Humidity: 90%   Direction: 80°E
Pressure: 29.93"   Gusts: NA
Location:  44.31°N, 73.35°W
Report Text: KBTV 210954Z 08003KT 8SM -RA OVC046 07/06 A2993 RMK AO2 SLP138 P0003 T00720056
Loading
Personal Weather Stations






























Interactive Weather Map
Tropical Storm Tracking
New forecast layout! Learn more

10-Day Weather Forecast

Advertisements
Track Severe Weather on mobile